sensor_id;sensor_type;location;lat;lon;timestamp;pressure;altitude;pressure_sealevel;temperature;humidity
47753;BME280;2038;51.728;6.674;2023-05-19T00:02:16;101957.94;;;10.94;83.27
47753;BME280;2038;51.728;6.674;2023-05-19T00:04:45;101956.41;;;10.96;83.11
47753;BME280;2038;51.728;6.674;2023-05-19T00:07:16;101963.81;;;10.93;82.44
47753;BME280;2038;51.728;6.674;2023-05-19T00:09:44;101959.34;;;10.91;83.50
47753;BME280;2038;51.728;6.674;2023-05-19T00:12:11;101960.38;;;10.83;83.30
47753;BME280;2038;51.728;6.674;2023-05-19T00:14:38;101962.63;;;10.79;83.01
47753;BME280;2038;51.728;6.674;2023-05-19T00:17:05;101962.53;;;10.78;82.85
47753;BME280;2038;51.728;6.674;2023-05-19T00:19:32;101960.59;;;10.75;83.50
47753;BME280;2038;51.728;6.674;2023-05-19T00:21:58;101968.25;;;10.75;83.05
47753;BME280;2038;51.728;6.674;2023-05-19T00:24:25;101956.00;;;10.71;83.91
47753;BME280;2038;51.728;6.674;2023-05-19T00:26:51;101961.00;;;10.70;83.41
47753;BME280;2038;51.728;6.674;2023-05-19T00:29:17;101967.88;;;10.71;83.69
47753;BME280;2038;51.728;6.674;2023-05-19T00:31:44;101960.50;;;10.74;83.05
47753;BME280;2038;51.728;6.674;2023-05-19T00:34:10;101957.69;;;10.71;83.56
47753;BME280;2038;51.728;6.674;2023-05-19T00:36:36;101958.06;;;10.65;83.21
47753;BME280;2038;51.728;6.674;2023-05-19T00:39:03;101952.31;;;10.68;83.18
47753;BME280;2038;51.728;6.674;2023-05-19T00:41:29;101949.66;;;10.66;83.77
47753;BME280;2038;51.728;6.674;2023-05-19T00:43:55;101954.22;;;10.60;84.68
47753;BME280;2038;51.728;6.674;2023-05-19T00:46:22;101947.22;;;10.58;84.39
47753;BME280;2038;51.728;6.674;2023-05-19T00:48:48;101951.56;;;10.59;84.55
47753;BME280;2038;51.728;6.674;2023-05-19T00:51:15;101953.97;;;10.57;84.82
47753;BME280;2038;51.728;6.674;2023-05-19T00:53:42;101949.53;;;10.55;85.43
47753;BME280;2038;51.728;6.674;2023-05-19T00:56:14;101952.28;;;10.48;85.81
47753;BME280;2038;51.728;6.674;2023-05-19T00:58:41;101951.28;;;10.46;85.82
47753;BME280;2038;51.728;6.674;2023-05-19T01:01:08;101950.25;;;10.44;85.14
47753;BME280;2038;51.728;6.674;2023-05-19T01:03:37;101945.66;;;10.40;85.98
47753;BME280;2038;51.728;6.674;2023-05-19T01:06:05;101943.09;;;10.40;85.92
47753;BME280;2038;51.728;6.674;2023-05-19T01:08:33;101939.53;;;10.38;85.72
47753;BME280;2038;51.728;6.674;2023-05-19T01:11:01;101941.94;;;10.36;86.44
47753;BME280;2038;51.728;6.674;2023-05-19T01:13:29;101936.09;;;10.37;85.91
47753;BME280;2038;51.728;6.674;2023-05-19T01:19:37;101934.19;;;10.35;85.67
47753;BME280;2038;51.728;6.674;2023-05-19T01:30:59;101932.09;;;10.20;86.99
47753;BME280;2038;51.728;6.674;2023-05-19T01:33:28;101933.91;;;10.21;87.87
47753;BME280;2038;51.728;6.674;2023-05-19T01:35:58;101942.03;;;10.17;88.46
47753;BME280;2038;51.728;6.674;2023-05-19T01:38:29;101936.06;;;10.17;88.02
47753;BME280;2038;51.728;6.674;2023-05-19T01:40:57;101938.47;;;10.15;87.94
47753;BME280;2038;51.728;6.674;2023-05-19T01:43:26;101939.97;;;10.13;88.20
47753;BME280;2038;51.728;6.674;2023-05-19T01:45:54;101941.22;;;10.08;88.34
47753;BME280;2038;51.728;6.674;2023-05-19T01:48:22;101942.75;;;10.06;88.18
47753;BME280;2038;51.728;6.674;2023-05-19T01:50:49;101945.16;;;10.05;88.43
47753;BME280;2038;51.728;6.674;2023-05-19T01:53:15;101945.00;;;10.03;88.42
47753;BME280;2038;51.728;6.674;2023-05-19T01:55:49;101941.19;;;9.98;89.47
47753;BME280;2038;51.728;6.674;2023-05-19T01:58:20;101944.50;;;9.97;88.92
47753;BME280;2038;51.728;6.674;2023-05-19T02:01:16;101939.41;;;9.97;89.70
47753;BME280;2038;51.728;6.674;2023-05-19T02:09:59;101938.47;;;9.86;90.90
47753;BME280;2038;51.728;6.674;2023-05-19T02:12:35;101941.53;;;9.82;90.97
47753;BME280;2038;51.728;6.674;2023-05-19T02:15:14;101939.84;;;9.83;90.71
47753;BME280;2038;51.728;6.674;2023-05-19T02:17:45;101940.47;;;9.80;91.22
47753;BME280;2038;51.728;6.674;2023-05-19T02:20:17;101941.22;;;9.79;91.50
47753;BME280;2038;51.728;6.674;2023-05-19T02:22:43;101941.88;;;9.77;91.36
47753;BME280;2038;51.728;6.674;2023-05-19T02:25:10;101936.63;;;9.75;91.45
47753;BME280;2038;51.728;6.674;2023-05-19T02:27:37;101938.16;;;9.73;91.65
47753;BME280;2038;51.728;6.674;2023-05-19T02:30:05;101933.41;;;9.68;92.43
47753;BME280;2038;51.728;6.674;2023-05-19T02:32:32;101925.25;;;9.62;92.78
47753;BME280;2038;51.728;6.674;2023-05-19T02:34:59;101923.97;;;9.57;93.62
47753;BME280;2038;51.728;6.674;2023-05-19T02:37:25;101925.19;;;9.52;94.19
47753;BME280;2038;51.728;6.674;2023-05-19T02:39:53;101920.75;;;9.49;95.95
47753;BME280;2038;51.728;6.674;2023-05-19T02:42:20;101917.03;;;9.46;95.24
47753;BME280;2038;51.728;6.674;2023-05-19T02:44:47;101919.16;;;9.41;96.70
47753;BME280;2038;51.728;6.674;2023-05-19T02:47:13;101917.94;;;9.46;95.86
47753;BME280;2038;51.728;6.674;2023-05-19T02:49:39;101909.00;;;9.41;96.88
47753;BME280;2038;51.728;6.674;2023-05-19T02:52:07;101906.44;;;9.41;96.45
47753;BME280;2038;51.728;6.674;2023-05-19T02:54:34;101906.03;;;9.36;97.60
47753;BME280;2038;51.728;6.674;2023-05-19T02:57:00;101909.41;;;9.27;97.64
47753;BME280;2038;51.728;6.674;2023-05-19T02:59:27;101906.38;;;9.31;97.53
47753;BME280;2038;51.728;6.674;2023-05-19T03:01:59;101910.94;;;9.25;98.92
47753;BME280;2038;51.728;6.674;2023-05-19T03:04:27;101913.81;;;9.19;98.09
47753;BME280;2038;51.728;6.674;2023-05-19T03:06:54;101911.75;;;9.15;98.35
47753;BME280;2038;51.728;6.674;2023-05-19T03:09:22;101915.09;;;9.14;99.47
47753;BME280;2038;51.728;6.674;2023-05-19T03:11:48;101918.22;;;9.12;100.00
47753;BME280;2038;51.728;6.674;2023-05-19T03:14:14;101916.91;;;9.07;100.00
47753;BME280;2038;51.728;6.674;2023-05-19T03:16:41;101919.97;;;9.03;99.93
47753;BME280;2038;51.728;6.674;2023-05-19T03:19:07;101913.69;;;8.99;100.00
47753;BME280;2038;51.728;6.674;2023-05-19T03:21:34;101909.66;;;9.01;100.00
47753;BME280;2038;51.728;6.674;2023-05-19T03:24:01;101910.13;;;8.97;100.00
47753;BME280;2038;51.728;6.674;2023-05-19T03:26:27;101914.16;;;8.95;100.00
47753;BME280;2038;51.728;6.674;2023-05-19T03:28:54;101913.91;;;8.92;100.00
47753;BME280;2038;51.728;6.674;2023-05-19T03:31:20;101921.53;;;8.92;100.00
47753;BME280;2038;51.728;6.674;2023-05-19T03:33:46;101908.06;;;8.93;100.00
47753;BME280;2038;51.728;6.674;2023-05-19T03:36:12;101914.78;;;8.92;100.00
47753;BME280;2038;51.728;6.674;2023-05-19T03:38:39;101911.09;;;8.89;100.00
47753;BME280;2038;51.728;6.674;2023-05-19T03:41:05;101911.34;;;8.92;100.00
47753;BME280;2038;51.728;6.674;2023-05-19T03:43:32;101916.59;;;8.93;100.00
47753;BME280;2038;51.728;6.674;2023-05-19T03:45:58;101914.38;;;8.88;100.00
47753;BME280;2038;51.728;6.674;2023-05-19T03:48:24;101922.91;;;8.88;100.00
47753;BME280;2038;51.728;6.674;2023-05-19T03:50:51;101921.25;;;8.89;100.00
47753;BME280;2038;51.728;6.674;2023-05-19T03:53:17;101921.72;;;8.85;100.00
47753;BME280;2038;51.728;6.674;2023-05-19T03:55:43;101920.34;;;8.88;100.00
47753;BME280;2038;51.728;6.674;2023-05-19T03:58:10;101920.22;;;8.87;100.00
47753;BME280;2038;51.728;6.674;2023-05-19T04:00:39;101923.94;;;8.90;100.00
47753;BME280;2038;51.728;6.674;2023-05-19T04:03:05;101922.84;;;8.97;100.00
47753;BME280;2038;51.728;6.674;2023-05-19T04:05:32;101924.75;;;9.00;100.00
47753;BME280;2038;51.728;6.674;2023-05-19T04:07:59;101922.34;;;9.01;100.00
47753;BME280;2038;51.728;6.674;2023-05-19T04:10:25;101928.56;;;8.95;100.00
47753;BME280;2038;51.728;6.674;2023-05-19T04:12:51;101931.78;;;9.02;100.00
47753;BME280;2038;51.728;6.674;2023-05-19T04:15:17;101926.22;;;9.06;100.00
47753;BME280;2038;51.728;6.674;2023-05-19T04:17:44;101930.47;;;9.16;100.00
47753;BME280;2038;51.728;6.674;2023-05-19T04:20:11;101932.13;;;9.34;100.00
47753;BME280;2038;51.728;6.674;2023-05-19T04:22:37;101931.25;;;9.44;100.00
47753;BME280;2038;51.728;6.674;2023-05-19T04:25:04;101935.38;;;9.52;100.00
47753;BME280;2038;51.728;6.674;2023-05-19T04:27:30;101933.16;;;9.65;100.00
47753;BME280;2038;51.728;6.674;2023-05-19T04:29:57;101932.66;;;9.69;100.00
47753;BME280;2038;51.728;6.674;2023-05-19T04:32:24;101936.03;;;9.78;100.00
47753;BME280;2038;51.728;6.674;2023-05-19T04:34:50;101934.22;;;9.77;100.00
47753;BME280;2038;51.728;6.674;2023-05-19T04:37:17;101934.41;;;9.88;100.00
47753;BME280;2038;51.728;6.674;2023-05-19T04:39:44;101935.97;;;9.97;100.00
47753;BME280;2038;51.728;6.674;2023-05-19T04:42:11;101937.69;;;10.16;100.00
47753;BME280;2038;51.728;6.674;2023-05-19T04:44:38;101935.44;;;10.29;99.95
47753;BME280;2038;51.728;6.674;2023-05-19T04:47:08;101939.94;;;10.42;99.78
47753;BME280;2038;51.728;6.674;2023-05-19T04:49:35;101942.72;;;10.55;98.81
47753;BME280;2038;51.728;6.674;2023-05-19T04:52:06;101950.25;;;10.64;97.80
47753;BME280;2038;51.728;6.674;2023-05-19T04:54:35;101937.28;;;10.71;97.87
47753;BME280;2038;51.728;6.674;2023-05-19T04:57:03;101949.03;;;10.99;97.24
47753;BME280;2038;51.728;6.674;2023-05-19T04:59:29;101945.78;;;11.12;96.46
47753;BME280;2038;51.728;6.674;2023-05-19T05:01:56;101946.78;;;11.34;95.84
47753;BME280;2038;51.728;6.674;2023-05-19T05:04:23;101945.19;;;11.56;94.88
47753;BME280;2038;51.728;6.674;2023-05-19T05:06:49;101940.28;;;11.69;94.49
47753;BME280;2038;51.728;6.674;2023-05-19T05:09:16;101943.38;;;11.65;94.12
47753;BME280;2038;51.728;6.674;2023-05-19T05:11:43;101942.66;;;11.88;92.98
47753;BME280;2038;51.728;6.674;2023-05-19T05:14:10;101944.31;;;11.98;93.32
47753;BME280;2038;51.728;6.674;2023-05-19T05:16:36;101944.72;;;12.14;92.83
47753;BME280;2038;51.728;6.674;2023-05-19T05:19:03;101945.44;;;12.23;91.99
47753;BME280;2038;51.728;6.674;2023-05-19T05:21:30;101948.75;;;12.44;91.82
47753;BME280;2038;51.728;6.674;2023-05-19T05:23:57;101952.63;;;12.39;89.99
47753;BME280;2038;51.728;6.674;2023-05-19T05:26:27;101955.38;;;12.30;90.75
47753;BME280;2038;51.728;6.674;2023-05-19T05:28:56;101956.84;;;12.38;89.48
47753;BME280;2038;51.728;6.674;2023-05-19T05:31:22;101952.50;;;12.37;91.00
47753;BME280;2038;51.728;6.674;2023-05-19T05:33:49;101946.50;;;12.58;90.98
47753;BME280;2038;51.728;6.674;2023-05-19T05:36:15;101944.03;;;12.60;89.79
47753;BME280;2038;51.728;6.674;2023-05-19T05:38:41;101948.19;;;12.70;89.11
47753;BME280;2038;51.728;6.674;2023-05-19T05:41:07;101945.50;;;12.68;88.53
47753;BME280;2038;51.728;6.674;2023-05-19T05:43:34;101942.00;;;12.78;87.88
47753;BME280;2038;51.728;6.674;2023-05-19T05:46:00;101942.88;;;12.78;88.70
47753;BME280;2038;51.728;6.674;2023-05-19T05:48:26;101943.44;;;12.86;88.68
47753;BME280;2038;51.728;6.674;2023-05-19T05:50:53;101936.34;;;12.93;88.45
47753;BME280;2038;51.728;6.674;2023-05-19T05:53:24;101935.25;;;13.01;88.72
47753;BME280;2038;51.728;6.674;2023-05-19T05:55:54;101939.22;;;13.20;88.80
47753;BME280;2038;51.728;6.674;2023-05-19T05:58:20;101940.22;;;13.33;88.05
47753;BME280;2038;51.728;6.674;2023-05-19T06:00:47;101934.44;;;13.36;87.73
47753;BME280;2038;51.728;6.674;2023-05-19T06:03:14;101932.78;;;13.48;87.29
47753;BME280;2038;51.728;6.674;2023-05-19T06:05:41;101936.44;;;13.63;86.31
47753;BME280;2038;51.728;6.674;2023-05-19T06:08:07;101925.50;;;13.77;84.55
47753;BME280;2038;51.728;6.674;2023-05-19T06:10:34;101930.16;;;13.83;85.26
47753;BME280;2038;51.728;6.674;2023-05-19T06:13:01;101928.00;;;14.00;83.21
47753;BME280;2038;51.728;6.674;2023-05-19T06:15:27;101940.03;;;14.01;82.71
47753;BME280;2038;51.728;6.674;2023-05-19T06:17:53;101929.00;;;14.02;82.65
47753;BME280;2038;51.728;6.674;2023-05-19T06:20:20;101936.69;;;14.02;84.39
47753;BME280;2038;51.728;6.674;2023-05-19T06:22:46;101933.13;;;14.12;84.17
47753;BME280;2038;51.728;6.674;2023-05-19T06:25:12;101935.63;;;14.24;84.40
47753;BME280;2038;51.728;6.674;2023-05-19T06:27:39;101942.19;;;14.32;83.96
47753;BME280;2038;51.728;6.674;2023-05-19T06:30:05;101944.50;;;14.52;82.66
47753;BME280;2038;51.728;6.674;2023-05-19T06:32:33;101945.53;;;14.67;80.37
47753;BME280;2038;51.728;6.674;2023-05-19T06:34:59;101955.59;;;14.64;79.88
47753;BME280;2038;51.728;6.674;2023-05-19T06:37:25;101943.91;;;14.56;79.09
47753;BME280;2038;51.728;6.674;2023-05-19T06:39:52;101954.84;;;14.53;79.08
47753;BME280;2038;51.728;6.674;2023-05-19T06:42:20;101945.94;;;14.73;81.59
47753;BME280;2038;51.728;6.674;2023-05-19T06:44:48;101945.06;;;14.86;81.86
47753;BME280;2038;51.728;6.674;2023-05-19T06:47:16;101945.78;;;14.96;80.63
47753;BME280;2038;51.728;6.674;2023-05-19T06:49:45;101949.16;;;15.09;77.03
47753;BME280;2038;51.728;6.674;2023-05-19T06:52:15;101947.03;;;15.15;76.57
47753;BME280;2038;51.728;6.674;2023-05-19T06:54:41;101947.13;;;15.16;76.61
47753;BME280;2038;51.728;6.674;2023-05-19T06:57:08;101942.81;;;15.28;78.06
47753;BME280;2038;51.728;6.674;2023-05-19T06:59:34;101944.38;;;15.39;75.33
47753;BME280;2038;51.728;6.674;2023-05-19T07:02:02;101946.56;;;15.46;75.36
47753;BME280;2038;51.728;6.674;2023-05-19T07:04:29;101953.38;;;15.46;75.69
47753;BME280;2038;51.728;6.674;2023-05-19T07:06:55;101945.88;;;15.62;75.97
47753;BME280;2038;51.728;6.674;2023-05-19T07:09:22;101945.09;;;15.76;76.16
47753;BME280;2038;51.728;6.674;2023-05-19T07:11:48;101944.69;;;15.83;75.38
47753;BME280;2038;51.728;6.674;2023-05-19T07:14:14;101944.97;;;15.88;75.64
47753;BME280;2038;51.728;6.674;2023-05-19T07:16:40;101944.75;;;15.98;73.06
47753;BME280;2038;51.728;6.674;2023-05-19T07:19:06;101944.44;;;16.07;71.90
47753;BME280;2038;51.728;6.674;2023-05-19T07:21:33;101936.44;;;16.02;71.64
47753;BME280;2038;51.728;6.674;2023-05-19T07:23:59;101940.66;;;16.15;71.79
47753;BME280;2038;51.728;6.674;2023-05-19T07:26:25;101942.81;;;16.22;72.21
47753;BME280;2038;51.728;6.674;2023-05-19T07:28:52;101937.81;;;16.38;73.58
47753;BME280;2038;51.728;6.674;2023-05-19T07:31:18;101936.41;;;16.43;72.06
47753;BME280;2038;51.728;6.674;2023-05-19T07:33:44;101934.47;;;16.54;71.51
47753;BME280;2038;51.728;6.674;2023-05-19T07:36:11;101930.53;;;16.59;71.88
47753;BME280;2038;51.728;6.674;2023-05-19T07:38:37;101935.63;;;16.72;75.64
47753;BME280;2038;51.728;6.674;2023-05-19T07:41:03;101933.50;;;16.79;72.26
47753;BME280;2038;51.728;6.674;2023-05-19T07:43:29;101937.31;;;16.86;73.61
47753;BME280;2038;51.728;6.674;2023-05-19T07:45:56;101937.59;;;16.91;70.12
47753;BME280;2038;51.728;6.674;2023-05-19T07:48:22;101935.00;;;16.91;71.35
47753;BME280;2038;51.728;6.674;2023-05-19T07:50:51;101936.72;;;17.05;71.03
47753;BME280;2038;51.728;6.674;2023-05-19T07:53:18;101931.00;;;17.10;69.38
47753;BME280;2038;51.728;6.674;2023-05-19T07:55:45;101929.06;;;17.06;71.36
47753;BME280;2038;51.728;6.674;2023-05-19T07:58:11;101934.75;;;17.15;70.45
47753;BME280;2038;51.728;6.674;2023-05-19T08:00:38;101934.91;;;17.18;68.25
47753;BME280;2038;51.728;6.674;2023-05-19T08:03:04;101934.84;;;17.17;69.57
47753;BME280;2038;51.728;6.674;2023-05-19T08:05:34;101929.06;;;17.21;69.42
47753;BME280;2038;51.728;6.674;2023-05-19T08:08:01;101926.22;;;17.16;69.77
47753;BME280;2038;51.728;6.674;2023-05-19T08:10:27;101925.69;;;17.22;68.62
47753;BME280;2038;51.728;6.674;2023-05-19T08:12:55;101919.00;;;17.25;69.52
47753;BME280;2038;51.728;6.674;2023-05-19T08:15:21;101921.59;;;17.40;68.59
47753;BME280;2038;51.728;6.674;2023-05-19T08:17:48;101920.59;;;17.53;68.11
47753;BME280;2038;51.728;6.674;2023-05-19T08:20:14;101927.25;;;17.64;67.87
47753;BME280;2038;51.728;6.674;2023-05-19T08:22:40;101928.22;;;17.51;68.08
47753;BME280;2038;51.728;6.674;2023-05-19T08:25:07;101926.53;;;17.52;68.24
47753;BME280;2038;51.728;6.674;2023-05-19T08:27:34;101924.13;;;17.55;67.00
47753;BME280;2038;51.728;6.674;2023-05-19T08:30:00;101922.63;;;17.58;68.32
47753;BME280;2038;51.728;6.674;2023-05-19T08:32:26;101920.47;;;17.66;67.63
47753;BME280;2038;51.728;6.674;2023-05-19T08:34:52;101916.16;;;17.65;69.05
47753;BME280;2038;51.728;6.674;2023-05-19T08:37:19;101922.69;;;17.74;67.55
47753;BME280;2038;51.728;6.674;2023-05-19T08:39:45;101917.25;;;17.70;65.84
47753;BME280;2038;51.728;6.674;2023-05-19T08:42:11;101913.16;;;17.73;67.04
47753;BME280;2038;51.728;6.674;2023-05-19T08:44:37;101906.47;;;17.61;67.60
47753;BME280;2038;51.728;6.674;2023-05-19T08:47:05;101909.00;;;17.75;66.77
47753;BME280;2038;51.728;6.674;2023-05-19T08:49:45;101902.97;;;17.91;67.83
47753;BME280;2038;51.728;6.674;2023-05-19T08:52:45;101896.53;;;17.99;65.36
47753;BME280;2038;51.728;6.674;2023-05-19T08:58:23;101894.09;;;18.02;65.60
47753;BME280;2038;51.728;6.674;2023-05-19T09:00:52;101892.53;;;17.73;65.85
47753;BME280;2038;51.728;6.674;2023-05-19T09:03:18;101886.69;;;17.92;66.10
47753;BME280;2038;51.728;6.674;2023-05-19T09:05:46;101888.72;;;18.14;63.51
47753;BME280;2038;51.728;6.674;2023-05-19T09:08:13;101887.81;;;18.30;63.69
47753;BME280;2038;51.728;6.674;2023-05-19T09:10:39;101880.06;;;18.46;63.10
47753;BME280;2038;51.728;6.674;2023-05-19T09:13:05;101867.25;;;18.47;63.26
47753;BME280;2038;51.728;6.674;2023-05-19T09:15:32;101883.31;;;18.25;61.94
47753;BME280;2038;51.728;6.674;2023-05-19T09:18:09;101867.66;;;18.39;61.56
47753;BME280;2038;51.728;6.674;2023-05-19T09:20:39;101874.06;;;18.29;61.53
47753;BME280;2038;51.728;6.674;2023-05-19T09:23:11;101880.00;;;18.44;62.58
47753;BME280;2038;51.728;6.674;2023-05-19T09:25:51;101867.75;;;18.56;62.45
47753;BME280;2038;51.728;6.674;2023-05-19T09:28:28;101864.66;;;18.63;64.27
47753;BME280;2038;51.728;6.674;2023-05-19T09:31:02;101867.06;;;18.77;61.77
47753;BME280;2038;51.728;6.674;2023-05-19T09:33:28;101864.78;;;18.83;62.89
47753;BME280;2038;51.728;6.674;2023-05-19T09:35:57;101859.56;;;18.81;62.93
47753;BME280;2038;51.728;6.674;2023-05-19T09:38:24;101859.19;;;18.91;61.01
47753;BME280;2038;51.728;6.674;2023-05-19T09:40:52;101853.72;;;18.85;60.53
47753;BME280;2038;51.728;6.674;2023-05-19T09:43:22;101851.81;;;18.81;59.52
47753;BME280;2038;51.728;6.674;2023-05-19T09:48:31;101856.78;;;18.78;59.84
47753;BME280;2038;51.728;6.674;2023-05-19T09:51:00;101860.78;;;18.72;61.02
47753;BME280;2038;51.728;6.674;2023-05-19T09:53:29;101854.59;;;18.86;62.73
47753;BME280;2038;51.728;6.674;2023-05-19T09:55:57;101857.25;;;18.87;59.99
47753;BME280;2038;51.728;6.674;2023-05-19T09:58:30;101856.97;;;18.81;61.44
47753;BME280;2038;51.728;6.674;2023-05-19T10:01:00;101846.75;;;18.66;60.81
47753;BME280;2038;51.728;6.674;2023-05-19T10:03:26;101842.59;;;18.52;61.49
47753;BME280;2038;51.728;6.674;2023-05-19T10:05:53;101841.50;;;18.49;61.09
47753;BME280;2038;51.728;6.674;2023-05-19T10:08:21;101843.22;;;18.64;62.79
47753;BME280;2038;51.728;6.674;2023-05-19T10:10:49;101847.25;;;18.93;64.14
47753;BME280;2038;51.728;6.674;2023-05-19T10:13:15;101841.56;;;19.00;61.70
47753;BME280;2038;51.728;6.674;2023-05-19T10:15:42;101840.75;;;19.01;60.96
47753;BME280;2038;51.728;6.674;2023-05-19T10:18:10;101844.00;;;18.97;61.33
47753;BME280;2038;51.728;6.674;2023-05-19T10:20:37;101844.91;;;18.82;60.46
47753;BME280;2038;51.728;6.674;2023-05-19T10:23:05;101833.72;;;18.81;60.07
47753;BME280;2038;51.728;6.674;2023-05-19T10:25:32;101827.34;;;18.75;60.58
47753;BME280;2038;51.728;6.674;2023-05-19T10:28:08;101834.44;;;18.61;59.99
47753;BME280;2038;51.728;6.674;2023-05-19T10:30:39;101834.66;;;18.83;61.44
47753;BME280;2038;51.728;6.674;2023-05-19T10:33:09;101825.50;;;18.90;61.34
47753;BME280;2038;51.728;6.674;2023-05-19T10:39:06;101822.56;;;18.82;60.55
47753;BME280;2038;51.728;6.674;2023-05-19T10:44:57;101827.50;;;18.95;60.08
47753;BME280;2038;51.728;6.674;2023-05-19T10:47:33;101810.03;;;19.07;62.16
47753;BME280;2038;51.728;6.674;2023-05-19T10:50:04;101815.91;;;19.23;62.31
47753;BME280;2038;51.728;6.674;2023-05-19T10:52:36;101814.75;;;19.34;58.86
47753;BME280;2038;51.728;6.674;2023-05-19T10:55:06;101822.56;;;19.35;59.28
47753;BME280;2038;51.728;6.674;2023-05-19T10:57:33;101816.72;;;19.39;60.27
47753;BME280;2038;51.728;6.674;2023-05-19T11:00:25;101816.88;;;19.42;58.74
47753;BME280;2038;51.728;6.674;2023-05-19T11:02:52;101814.13;;;19.57;60.90
47753;BME280;2038;51.728;6.674;2023-05-19T11:05:28;101810.88;;;19.61;58.69
47753;BME280;2038;51.728;6.674;2023-05-19T11:07:57;101810.53;;;19.73;60.10
47753;BME280;2038;51.728;6.674;2023-05-19T11:10:33;101802.53;;;19.86;57.54
47753;BME280;2038;51.728;6.674;2023-05-19T11:13:00;101805.56;;;19.77;59.22
47753;BME280;2038;51.728;6.674;2023-05-19T11:15:27;101807.97;;;19.73;57.54
47753;BME280;2038;51.728;6.674;2023-05-19T11:17:54;101805.41;;;19.74;57.65
47753;BME280;2038;51.728;6.674;2023-05-19T11:20:28;101816.41;;;19.69;61.07
47753;BME280;2038;51.728;6.674;2023-05-19T11:23:09;101813.13;;;19.73;60.17
47753;BME280;2038;51.728;6.674;2023-05-19T11:25:50;101818.50;;;19.77;58.96
47753;BME280;2038;51.728;6.674;2023-05-19T11:28:19;101805.56;;;19.77;60.32
47753;BME280;2038;51.728;6.674;2023-05-19T11:30:52;101807.63;;;19.84;58.76
47753;BME280;2038;51.728;6.674;2023-05-19T11:33:20;101802.22;;;19.80;57.62
47753;BME280;2038;51.728;6.674;2023-05-19T11:35:53;101800.25;;;19.74;62.02
47753;BME280;2038;51.728;6.674;2023-05-19T11:38:24;101789.72;;;19.89;60.57
47753;BME280;2038;51.728;6.674;2023-05-19T11:40:53;101799.63;;;19.99;60.67
47753;BME280;2038;51.728;6.674;2023-05-19T11:43:24;101790.47;;;20.05;61.39
47753;BME280;2038;51.728;6.674;2023-05-19T11:45:52;101802.97;;;20.16;57.12
47753;BME280;2038;51.728;6.674;2023-05-19T11:48:21;101798.75;;;19.98;59.52
47753;BME280;2038;51.728;6.674;2023-05-19T11:50:49;101807.88;;;20.09;62.27
47753;BME280;2038;51.728;6.674;2023-05-19T11:53:17;101794.06;;;20.09;57.87
47753;BME280;2038;51.728;6.674;2023-05-19T11:55:47;101790.59;;;19.89;57.99
47753;BME280;2038;51.728;6.674;2023-05-19T11:58:13;101785.28;;;20.05;58.14
47753;BME280;2038;51.728;6.674;2023-05-19T12:00:42;101788.19;;;20.13;57.17
47753;BME280;2038;51.728;6.674;2023-05-19T12:03:10;101786.06;;;20.24;57.25
47753;BME280;2038;51.728;6.674;2023-05-19T12:05:42;101777.72;;;20.29;58.79
47753;BME280;2038;51.728;6.674;2023-05-19T12:08:11;101779.03;;;20.40;56.53
47753;BME280;2038;51.728;6.674;2023-05-19T12:10:38;101773.75;;;20.37;58.83
47753;BME280;2038;51.728;6.674;2023-05-19T12:13:05;101777.34;;;20.41;56.93
47753;BME280;2038;51.728;6.674;2023-05-19T12:15:34;101765.59;;;20.49;57.51
47753;BME280;2038;51.728;6.674;2023-05-19T12:18:01;101770.13;;;20.54;60.82
47753;BME280;2038;51.728;6.674;2023-05-19T12:20:29;101770.69;;;20.47;57.00
47753;BME280;2038;51.728;6.674;2023-05-19T12:23:00;101768.41;;;20.34;58.10
47753;BME280;2038;51.728;6.674;2023-05-19T12:25:28;101769.06;;;20.49;59.17
47753;BME280;2038;51.728;6.674;2023-05-19T12:28:01;101764.78;;;20.50;56.58
47753;BME280;2038;51.728;6.674;2023-05-19T12:30:29;101759.34;;;20.44;55.60
47753;BME280;2038;51.728;6.674;2023-05-19T12:32:56;101752.38;;;20.43;55.98
47753;BME280;2038;51.728;6.674;2023-05-19T12:35:27;101753.72;;;20.54;56.95
47753;BME280;2038;51.728;6.674;2023-05-19T12:37:54;101755.66;;;20.60;57.08
47753;BME280;2038;51.728;6.674;2023-05-19T12:40:21;101743.19;;;20.72;56.28
47753;BME280;2038;51.728;6.674;2023-05-19T12:42:48;101749.56;;;20.80;56.86
47753;BME280;2038;51.728;6.674;2023-05-19T12:45:20;101741.72;;;20.78;54.94
47753;BME280;2038;51.728;6.674;2023-05-19T12:47:48;101753.88;;;20.59;54.15
47753;BME280;2038;51.728;6.674;2023-05-19T12:50:15;101740.59;;;20.49;54.39
47753;BME280;2038;51.728;6.674;2023-05-19T12:52:42;101747.59;;;20.52;54.37
47753;BME280;2038;51.728;6.674;2023-05-19T12:55:12;101749.34;;;20.74;55.21
47753;BME280;2038;51.728;6.674;2023-05-19T12:57:42;101740.88;;;20.78;54.49
47753;BME280;2038;51.728;6.674;2023-05-19T13:00:18;101743.06;;;20.89;54.18
47753;BME280;2038;51.728;6.674;2023-05-19T13:03:03;101740.78;;;20.97;55.81
47753;BME280;2038;51.728;6.674;2023-05-19T13:05:33;101735.94;;;21.06;53.47
47753;BME280;2038;51.728;6.674;2023-05-19T13:08:08;101728.31;;;21.11;54.97
47753;BME280;2038;51.728;6.674;2023-05-19T13:10:40;101731.50;;;21.03;55.51
47753;BME280;2038;51.728;6.674;2023-05-19T13:13:08;101732.19;;;20.98;53.42
47753;BME280;2038;51.728;6.674;2023-05-19T13:15:39;101736.22;;;20.91;57.10
47753;BME280;2038;51.728;6.674;2023-05-19T13:18:08;101738.91;;;20.94;53.74
47753;BME280;2038;51.728;6.674;2023-05-19T13:20:37;101735.59;;;20.97;53.25
47753;BME280;2038;51.728;6.674;2023-05-19T13:23:04;101724.91;;;20.89;55.88
47753;BME280;2038;51.728;6.674;2023-05-19T13:25:32;101723.97;;;20.87;54.56
47753;BME280;2038;51.728;6.674;2023-05-19T13:27:59;101734.28;;;20.86;54.51
47753;BME280;2038;51.728;6.674;2023-05-19T13:30:28;101724.56;;;20.80;54.93
47753;BME280;2038;51.728;6.674;2023-05-19T13:32:54;101720.56;;;20.88;54.04
47753;BME280;2038;51.728;6.674;2023-05-19T13:35:21;101714.03;;;20.98;53.23
47753;BME280;2038;51.728;6.674;2023-05-19T13:37:48;101717.63;;;21.01;52.72